createdAt,value
2022-08-14T00:00:12.319Z,97740.16
2022-08-14T00:04:31.978Z,97729.91
2022-08-14T00:08:44.631Z,97732.72
2022-08-14T00:12:56.603Z,97720.03
2022-08-14T00:17:01.014Z,97730.88
2022-08-14T00:21:04.854Z,97724.97
2022-08-14T00:25:13.243Z,97717.09
2022-08-14T00:29:17.555Z,97710.34
2022-08-14T00:33:19.746Z,97710.34
2022-08-14T00:37:21.803Z,97704.91
2022-08-14T00:41:23.905Z,97693.50
2022-08-14T00:45:27.329Z,97691.94
2022-08-14T00:49:43.202Z,97687.97
2022-08-14T00:53:46.306Z,97679.34
2022-08-14T00:58:11.377Z,97682.16
2022-08-14T01:02:15.828Z,97688.63
2022-08-14T01:06:23.493Z,97676.94
2022-08-14T01:10:50.733Z,97678.31
2022-08-14T01:14:55.188Z,97683.66
2022-08-14T01:19:19.531Z,97679.38
2022-08-14T01:23:22.146Z,97664.94
2022-08-14T01:27:25.121Z,97666.94
2022-08-14T01:31:30.840Z,97659.22
2022-08-14T01:36:04.965Z,97657.56
2022-08-14T01:40:03.349Z,97651.31
2022-08-14T01:44:32.369Z,97653.75
2022-08-14T01:48:37.234Z,97648.44
2022-08-14T01:52:58.613Z,97646.63
2022-08-14T01:57:02.944Z,97636.50
2022-08-14T02:01:08.081Z,97630.72
2022-08-14T02:05:14.289Z,97625.56
2022-08-14T02:09:22.281Z,97619.16
2022-08-14T02:13:24.651Z,97624.34
2022-08-14T02:17:28.660Z,97617.34
2022-08-14T02:21:43.206Z,97600.38
2022-08-14T02:25:54.536Z,97599.03
2022-08-14T02:30:00.919Z,97592.19
2022-08-14T02:34:14.795Z,97596.38
2022-08-14T02:38:26.879Z,97580.94
2022-08-14T02:42:36.939Z,97567.97
2022-08-14T02:46:44.739Z,97555.25
2022-08-14T02:50:53.527Z,97553.69
2022-08-14T02:54:57.219Z,97549.59
2022-08-14T02:59:01.849Z,97548.63
2022-08-14T03:03:08.320Z,97552.97
2022-08-14T03:07:10.651Z,97544.03
2022-08-14T03:11:20.959Z,97545.50
2022-08-14T03:15:25.642Z,97542.72
2022-08-14T03:19:27.685Z,97552.63
2022-08-14T03:23:38.281Z,97547.19
2022-08-14T03:27:48.375Z,97538.78
2022-08-14T03:32:00.966Z,97545.44
2022-08-14T03:37:51.891Z,97539.69
2022-08-14T03:40:30.620Z,97537.47
2022-08-14T03:45:27.537Z,97547.38
2022-08-14T03:48:57.793Z,97544.25
2022-08-14T03:53:01.580Z,97549.78
2022-08-14T03:57:04.175Z,97549.88
2022-08-14T04:01:06.517Z,97549.63
2022-08-14T04:05:12.741Z,97539.28
2022-08-14T04:09:15.278Z,97536.53
2022-08-14T04:13:19.247Z,97521.38
2022-08-14T04:17:26.402Z,97523.78
2022-08-14T04:21:29.516Z,97519.75
2022-08-14T04:25:41.710Z,97517.25
2022-08-14T04:29:45.254Z,97513.81
2022-08-14T04:33:48.437Z,97508.66
2022-08-14T04:38:36.683Z,97515.91
2022-08-14T04:42:51.878Z,97520.34
2022-08-14T04:47:13.303Z,97514.69
2022-08-14T04:51:18.268Z,97505.09
2022-08-14T04:55:20.535Z,97508.84
2022-08-14T04:59:24.269Z,97504.50
2022-08-14T05:03:30.047Z,97508.09
2022-08-14T05:07:46.437Z,97514.94
2022-08-14T05:11:51.320Z,97518.81
2022-08-14T05:15:55.414Z,97520.41
2022-08-14T05:21:04.346Z,97518.63
2022-08-14T05:24:25.294Z,97513.38
2022-08-14T05:28:35.410Z,97513.03
2022-08-14T05:32:38.864Z,97508.53
2022-08-14T05:36:40.939Z,97504.59
2022-08-14T05:40:44.416Z,97514.16
2022-08-14T05:44:46.664Z,97503.50
2022-08-14T05:48:55.198Z,97500.50
2022-08-14T05:52:59.695Z,97501.81
2022-08-14T05:57:01.781Z,97498.53
2022-08-14T06:01:04.414Z,97490.25
2022-08-14T06:05:08.427Z,97488.03
2022-08-14T06:09:10.566Z,97485.00
2022-08-14T06:13:13.801Z,97487.25
2022-08-14T06:17:25.870Z,97482.88
2022-08-14T06:21:28.299Z,97476.91
2022-08-14T06:25:31.960Z,97470.06
2022-08-14T06:29:37.448Z,97475.06
2022-08-14T06:35:04.755Z,97474.25
2022-08-14T06:38:04.367Z,97464.84
2022-08-14T06:42:06.940Z,97457.09
2022-08-14T06:46:17.491Z,97459.97
2022-08-14T06:50:33.682Z,97458.84
2022-08-14T06:54:35.885Z,97449.09
2022-08-14T06:58:37.939Z,97448.84
2022-08-14T07:02:58.998Z,97446.16
2022-08-14T07:07:01.241Z,97453.00
2022-08-14T07:11:06.600Z,97440.78
2022-08-14T07:15:09.367Z,97439.72
2022-08-14T07:19:12.327Z,97425.59
2022-08-14T07:23:20.752Z,97425.66
2022-08-14T07:27:23.460Z,97416.53
2022-08-14T07:31:28.369Z,97417.09
2022-08-14T07:35:43.036Z,97407.78
2022-08-14T07:39:53.023Z,97408.69
2022-08-14T07:43:56.214Z,97398.47
2022-08-14T07:47:59.991Z,97395.56
2022-08-14T07:52:03.318Z,97402.16
2022-08-14T07:56:09.052Z,97395.00
2022-08-14T08:00:30.813Z,97389.09
2022-08-14T08:04:37.053Z,97394.44
2022-08-14T08:08:42.326Z,97399.63
2022-08-14T08:12:53.890Z,97412.94
2022-08-14T08:16:57.109Z,97421.09
2022-08-14T08:21:00.982Z,97413.25
2022-08-14T08:25:05.529Z,97420.78
2022-08-14T08:29:22.471Z,97415.56
2022-08-14T08:33:36.840Z,97409.72
2022-08-14T08:37:40.070Z,97415.56
2022-08-14T08:41:53.643Z,97414.03
2022-08-14T08:46:01.878Z,97423.09
2022-08-14T08:50:22.782Z,97416.91
2022-08-14T08:54:32.697Z,97412.78
2022-08-14T08:58:37.718Z,97411.06
2022-08-14T09:02:52.584Z,97402.31
2022-08-14T09:07:09.130Z,97393.50
2022-08-14T09:11:18.820Z,97394.47
2022-08-14T09:15:24.135Z,97391.94
2022-08-14T09:19:27.606Z,97392.25
2022-08-14T09:23:49.498Z,97390.47
2022-08-14T09:27:55.772Z,97393.50
2022-08-14T09:32:03.205Z,97372.97
2022-08-14T09:36:34.338Z,97367.75
2022-08-14T09:40:59.335Z,97374.34
2022-08-14T09:45:07.938Z,97368.47
2022-08-14T09:49:16.271Z,97367.00
2022-08-14T09:54:18.503Z,97365.81
2022-08-14T09:58:19.339Z,97365.34
2022-08-14T10:02:31.334Z,97364.50
2022-08-14T10:06:45.210Z,97358.69
2022-08-14T10:10:53.376Z,97346.81
2022-08-14T10:14:59.357Z,97348.50
2022-08-14T10:19:09.563Z,97332.22
2022-08-14T10:23:16.236Z,97326.81
2022-08-14T10:27:26.734Z,97308.59
2022-08-14T10:31:45.446Z,97315.88
2022-08-14T10:35:48.380Z,97317.59
2022-08-14T10:40:10.480Z,97315.94
2022-08-14T10:44:21.373Z,97303.69
2022-08-14T10:48:37.124Z,97303.41
2022-08-14T10:52:43.105Z,97295.44
2022-08-14T10:56:45.523Z,97299.41
2022-08-14T11:00:57.269Z,97295.97
2022-08-14T11:05:13.513Z,97292.56
2022-08-14T11:09:17.221Z,97283.13
2022-08-14T11:13:30.781Z,97292.81
2022-08-14T11:17:37.365Z,97291.84
2022-08-14T11:21:45.777Z,97296.94
2022-08-14T11:25:53.396Z,97290.75
2022-08-14T11:30:49.032Z,97274.56
2022-08-14T11:34:29.963Z,97270.41
2022-08-14T11:38:40.575Z,97263.66
2022-08-14T11:42:57.577Z,97259.31
2022-08-14T11:47:05.848Z,97250.09
2022-08-14T11:51:23.726Z,97240.97
2022-08-14T11:55:26.723Z,97234.34
2022-08-14T11:59:32.750Z,97218.97
2022-08-14T12:03:56.894Z,97230.63
2022-08-14T12:08:05.826Z,97213.19
2022-08-14T12:12:34.969Z,97196.13
2022-08-14T12:16:38.406Z,97193.28
2022-08-14T12:20:45.737Z,97196.19
2022-08-14T12:24:54.371Z,97187.47
2022-08-14T12:29:11.425Z,97182.47
2022-08-14T12:33:33.875Z,97181.84
2022-08-14T12:37:38.684Z,97179.78
2022-08-14T12:41:53.720Z,97179.78
2022-08-14T12:45:58.980Z,97172.47
2022-08-14T12:50:04.337Z,97167.72
2022-08-14T12:54:27.065Z,97160.41
2022-08-14T12:58:48.246Z,97161.47
2022-08-14T13:02:56.420Z,97148.38
2022-08-14T13:07:07.250Z,97143.38
2022-08-14T13:11:14.856Z,97143.78
2022-08-14T13:15:19.529Z,97134.41
2022-08-14T13:19:24.258Z,97136.22
2022-08-14T13:23:36.074Z,97124.38
2022-08-14T13:27:40.588Z,97122.75
2022-08-14T13:31:47.042Z,97107.59
2022-08-14T13:35:50.703Z,97104.69
2022-08-14T13:39:56.739Z,97095.88
2022-08-14T13:44:00.598Z,97082.50
2022-08-14T13:48:03.064Z,97081.06
2022-08-14T13:52:48.301Z,97076.50
2022-08-14T13:56:36.708Z,97071.94
2022-08-14T14:00:52.109Z,97063.44
2022-08-14T14:05:00.662Z,97060.91
2022-08-14T14:09:06.743Z,97063.38
2022-08-14T14:13:15.777Z,97061.50
2022-08-14T14:17:24.326Z,97050.03
2022-08-14T14:21:28.635Z,97048.75
2022-08-14T14:25:45.757Z,97040.41
2022-08-14T14:29:55.651Z,97042.88
2022-08-14T14:34:12.739Z,97042.34
2022-08-14T14:38:32.582Z,97036.91
2022-08-14T14:42:35.389Z,97031.44
2022-08-14T14:46:41.605Z,97031.78
2022-08-14T14:50:44.890Z,97033.66
2022-08-14T14:54:48.392Z,97022.59
2022-08-14T14:58:51.728Z,97015.19
2022-08-14T15:02:57.835Z,97011.47
2022-08-14T15:07:03.421Z,97006.00
2022-08-14T15:11:05.725Z,97007.59
2022-08-14T15:15:16.306Z,97009.66
2022-08-14T15:19:18.611Z,97001.81
2022-08-14T15:23:24.586Z,96999.66
2022-08-14T15:27:26.999Z,97000.50
2022-08-14T15:31:29.570Z,96993.81
2022-08-14T15:35:33.890Z,96988.53
2022-08-14T15:39:38.176Z,96986.84
2022-08-14T15:43:40.709Z,96984.50
2022-08-14T15:47:44.546Z,96983.00
2022-08-14T15:51:46.884Z,96984.50
2022-08-14T15:55:54.583Z,96978.47
2022-08-14T16:00:21.368Z,96975.16
2022-08-14T16:04:37.706Z,96974.38
2022-08-14T16:08:41.118Z,96969.84
2022-08-14T16:12:47.365Z,96972.78
2022-08-14T16:17:00.330Z,96968.13
2022-08-14T16:21:12.118Z,96966.00
2022-08-14T16:25:18.087Z,96962.88
2022-08-14T16:29:21.578Z,96956.75
2022-08-14T16:33:56.575Z,96959.44
2022-08-14T16:37:45.720Z,96951.31
2022-08-14T16:41:52.366Z,96960.94
2022-08-14T16:45:57.193Z,96939.09
2022-08-14T16:50:04.311Z,96941.50
2022-08-14T16:54:33.742Z,96937.41
2022-08-14T16:58:32.639Z,96930.66
2022-08-14T17:02:42.697Z,96927.63
2022-08-14T17:06:52.877Z,96923.06
2022-08-14T17:10:55.770Z,96922.47
2022-08-14T17:15:09.957Z,96920.03
2022-08-14T17:19:17.487Z,96922.59
2022-08-14T17:23:21.975Z,96924.06
2022-08-14T17:27:32.398Z,96918.06
2022-08-14T17:31:58.837Z,96919.69
2022-08-14T17:36:21.650Z,96912.66
2022-08-14T17:40:29.877Z,96906.88
2022-08-14T17:44:45.361Z,96906.88
2022-08-14T17:49:13.816Z,96916.44
2022-08-14T17:53:11.764Z,96920.38
2022-08-14T17:57:16.128Z,96925.59
2022-08-14T18:01:23.359Z,96921.00
2022-08-14T18:06:08.589Z,96921.41
2022-08-14T18:09:57.095Z,96915.19
2022-08-14T18:14:01.647Z,96917.19
2022-08-14T18:18:10.031Z,96913.59
2022-08-14T18:22:31.362Z,96913.13
2022-08-14T18:26:37.479Z,96909.56
2022-08-14T18:30:58.385Z,96917.16
2022-08-14T18:35:19.810Z,96911.94
2022-08-14T18:39:25.913Z,96917.25
2022-08-14T18:43:44.670Z,96921.09
2022-08-14T18:48:14.801Z,96921.06
2022-08-14T18:52:18.618Z,96922.06
2022-08-14T18:56:59.478Z,96924.72
2022-08-14T19:01:04.708Z,96924.94
2022-08-14T19:05:08.637Z,96933.69
2022-08-14T19:09:50.351Z,96935.84
2022-08-14T19:13:52.980Z,96937.00
2022-08-14T19:18:14.791Z,96934.13
2022-08-14T19:22:29.882Z,96931.72
2022-08-14T19:26:35.636Z,96930.25
2022-08-14T19:30:39.263Z,96936.53
2022-08-14T19:34:52.396Z,96942.19
2022-08-14T19:38:57.700Z,96952.47
2022-08-14T19:43:06.786Z,96944.16
2022-08-14T19:47:13.193Z,96943.69
2022-08-14T19:51:15.843Z,96944.69
2022-08-14T19:55:20.333Z,96945.09
2022-08-14T19:59:23.101Z,96940.28
2022-08-14T20:03:25.662Z,96951.91
2022-08-14T20:07:59.157Z,96944.13
2022-08-14T20:12:05.194Z,96942.72
2022-08-14T20:16:31.994Z,96945.34
2022-08-14T20:20:41.186Z,96942.38
2022-08-14T20:24:46.117Z,96949.31
2022-08-14T20:28:51.583Z,96947.88
2022-08-14T20:33:07.309Z,96939.53
2022-08-14T20:37:14.257Z,96942.66
2022-08-14T20:41:20.272Z,96946.47
2022-08-14T20:45:25.198Z,96940.53
2022-08-14T20:49:30.224Z,96946.94
2022-08-14T20:53:35.403Z,96945.25
2022-08-14T20:57:43.791Z,96951.13
2022-08-14T21:01:51.602Z,96946.59
2022-08-14T21:06:16.971Z,96943.22
2022-08-14T21:10:35.357Z,96939.22
2022-08-14T21:14:46.539Z,96939.91
2022-08-14T21:18:56.756Z,96933.59
2022-08-14T21:23:01.834Z,96936.31
2022-08-14T21:27:13.058Z,96937.31
2022-08-14T21:31:22.606Z,96935.31
2022-08-14T21:35:24.707Z,96927.69
2022-08-14T21:39:26.836Z,96925.38
2022-08-14T21:43:32.298Z,96928.75
2022-08-14T21:47:35.503Z,96912.19
2022-08-14T21:51:53.552Z,96920.59
2022-08-14T21:55:59.216Z,96922.28
2022-08-14T22:00:35.131Z,96928.28
2022-08-14T22:04:40.321Z,96924.47
2022-08-14T22:08:46.246Z,96923.44
2022-08-14T22:13:00.445Z,96920.06
2022-08-14T22:17:12.980Z,96918.75
2022-08-14T22:21:18.597Z,96915.03
2022-08-14T22:25:20.815Z,96915.41
2022-08-14T22:29:23.931Z,96912.41
2022-08-14T22:33:31.023Z,96913.22
2022-08-14T22:37:33.969Z,96909.63
2022-08-14T22:41:43.045Z,96909.28
2022-08-14T22:45:55.651Z,96900.94
2022-08-14T22:50:32.023Z,96901.69
2022-08-14T22:54:53.460Z,96909.53
2022-08-14T22:58:43.832Z,96906.72
2022-08-14T23:02:49.085Z,96906.38
2022-08-14T23:07:02.754Z,96905.69
2022-08-14T23:11:10.139Z,96915.22
2022-08-14T23:15:15.247Z,96906.88
2022-08-14T23:19:20.530Z,96909.28
2022-08-14T23:23:23.362Z,96893.53
2022-08-14T23:27:32.090Z,96898.97
2022-08-14T23:31:51.357Z,96889.81
2022-08-14T23:35:59.490Z,96885.00
2022-08-14T23:40:02.265Z,96888.22
2022-08-14T23:44:05.303Z,96878.56
2022-08-14T23:48:10.132Z,96871.88
2022-08-14T23:52:57.514Z,96869.66
2022-08-14T23:56:36.602Z,96864.50
